sensor_id;sensor_type;location;lat;lon;timestamp;P1;durP1;ratioP1;P2;durP2;ratioP2
16512;SDS011;8369;48.030;11.598;2023-12-07T00:01:53;8.37;;;6.23;;
16512;SDS011;8369;48.030;11.598;2023-12-07T00:04:19;11.53;;;6.90;;
16512;SDS011;8369;48.030;11.598;2023-12-07T00:06:45;8.37;;;6.13;;
16512;SDS011;8369;48.030;11.598;2023-12-07T00:09:11;10.27;;;6.33;;
16512;SDS011;8369;48.030;11.598;2023-12-07T00:11:37;9.07;;;6.30;;
16512;SDS011;8369;48.030;11.598;2023-12-07T00:14:02;9.63;;;7.10;;
16512;SDS011;8369;48.030;11.598;2023-12-07T00:16:28;8.17;;;6.23;;
16512;SDS011;8369;48.030;11.598;2023-12-07T00:18:54;10.00;;;6.00;;
16512;SDS011;8369;48.030;11.598;2023-12-07T00:21:20;8.60;;;6.60;;
16512;SDS011;8369;48.030;11.598;2023-12-07T00:23:46;9.17;;;6.97;;
16512;SDS011;8369;48.030;11.598;2023-12-07T00:26:12;9.57;;;6.07;;
16512;SDS011;8369;48.030;11.598;2023-12-07T00:28:37;9.93;;;6.63;;
16512;SDS011;8369;48.030;11.598;2023-12-07T00:31:03;9.47;;;6.73;;
16512;SDS011;8369;48.030;11.598;2023-12-07T00:33:29;10.00;;;7.23;;
16512;SDS011;8369;48.030;11.598;2023-12-07T00:35:55;9.90;;;7.33;;
16512;SDS011;8369;48.030;11.598;2023-12-07T00:38:21;12.47;;;8.20;;
16512;SDS011;8369;48.030;11.598;2023-12-07T00:40:47;11.00;;;7.20;;
16512;SDS011;8369;48.030;11.598;2023-12-07T00:43:13;11.27;;;7.67;;
16512;SDS011;8369;48.030;11.598;2023-12-07T00:45:38;11.63;;;7.70;;
16512;SDS011;8369;48.030;11.598;2023-12-07T00:48:04;11.83;;;7.93;;
16512;SDS011;8369;48.030;11.598;2023-12-07T00:50:30;9.77;;;7.17;;
16512;SDS011;8369;48.030;11.598;2023-12-07T00:52:56;11.13;;;7.40;;
16512;SDS011;8369;48.030;11.598;2023-12-07T00:55:22;10.80;;;7.20;;
16512;SDS011;8369;48.030;11.598;2023-12-07T00:57:48;9.67;;;7.33;;
16512;SDS011;8369;48.030;11.598;2023-12-07T01:00:13;9.80;;;7.00;;
16512;SDS011;8369;48.030;11.598;2023-12-07T01:02:39;11.33;;;7.50;;
16512;SDS011;8369;48.030;11.598;2023-12-07T01:05:05;11.27;;;6.83;;
16512;SDS011;8369;48.030;11.598;2023-12-07T01:07:31;11.67;;;7.77;;
16512;SDS011;8369;48.030;11.598;2023-12-07T01:09:57;11.40;;;7.60;;
16512;SDS011;8369;48.030;11.598;2023-12-07T01:12:23;11.00;;;7.40;;
16512;SDS011;8369;48.030;11.598;2023-12-07T01:14:48;11.63;;;7.30;;
16512;SDS011;8369;48.030;11.598;2023-12-07T01:17:14;11.93;;;7.43;;
16512;SDS011;8369;48.030;11.598;2023-12-07T01:19:40;12.03;;;7.67;;
16512;SDS011;8369;48.030;11.598;2023-12-07T01:22:05;10.87;;;7.53;;
16512;SDS011;8369;48.030;11.598;2023-12-07T01:24:31;10.43;;;7.07;;
16512;SDS011;8369;48.030;11.598;2023-12-07T01:26:57;11.50;;;7.03;;
16512;SDS011;8369;48.030;11.598;2023-12-07T01:29:23;12.53;;;7.73;;
16512;SDS011;8369;48.030;11.598;2023-12-07T01:31:49;11.37;;;7.67;;
16512;SDS011;8369;48.030;11.598;2023-12-07T01:34:16;10.50;;;7.00;;
16512;SDS011;8369;48.030;11.598;2023-12-07T01:36:43;9.53;;;7.10;;
16512;SDS011;8369;48.030;11.598;2023-12-07T01:39:09;10.80;;;7.27;;
16512;SDS011;8369;48.030;11.598;2023-12-07T01:41:38;10.13;;;7.07;;
16512;SDS011;8369;48.030;11.598;2023-12-07T01:44:04;11.23;;;7.37;;
16512;SDS011;8369;48.030;11.598;2023-12-07T01:46:30;9.60;;;6.83;;
16512;SDS011;8369;48.030;11.598;2023-12-07T01:48:57;13.03;;;7.40;;
16512;SDS011;8369;48.030;11.598;2023-12-07T01:51:23;11.43;;;7.63;;
16512;SDS011;8369;48.030;11.598;2023-12-07T01:53:49;9.93;;;7.00;;
16512;SDS011;8369;48.030;11.598;2023-12-07T01:56:16;12.33;;;7.70;;
16512;SDS011;8369;48.030;11.598;2023-12-07T01:58:42;12.53;;;7.77;;
16512;SDS011;8369;48.030;11.598;2023-12-07T02:01:08;11.57;;;7.13;;
16512;SDS011;8369;48.030;11.598;2023-12-07T02:03:37;13.27;;;7.30;;
16512;SDS011;8369;48.030;11.598;2023-12-07T02:06:05;11.23;;;7.57;;
16512;SDS011;8369;48.030;11.598;2023-12-07T02:08:31;12.57;;;8.10;;
16512;SDS011;8369;48.030;11.598;2023-12-07T02:10:57;11.83;;;7.57;;
16512;SDS011;8369;48.030;11.598;2023-12-07T02:13:23;13.37;;;8.00;;
16512;SDS011;8369;48.030;11.598;2023-12-07T02:15:49;10.97;;;7.20;;
16512;SDS011;8369;48.030;11.598;2023-12-07T02:18:16;12.53;;;8.23;;
16512;SDS011;8369;48.030;11.598;2023-12-07T02:21:12;11.83;;;7.87;;
16512;SDS011;8369;48.030;11.598;2023-12-07T02:23:43;11.93;;;7.27;;
16512;SDS011;8369;48.030;11.598;2023-12-07T02:26:12;11.97;;;7.53;;
16512;SDS011;8369;48.030;11.598;2023-12-07T02:28:43;10.27;;;7.13;;
16512;SDS011;8369;48.030;11.598;2023-12-07T02:31:09;10.53;;;6.97;;
16512;SDS011;8369;48.030;11.598;2023-12-07T02:33:35;11.33;;;7.97;;
16512;SDS011;8369;48.030;11.598;2023-12-07T02:36:00;13.10;;;7.90;;
16512;SDS011;8369;48.030;11.598;2023-12-07T02:38:26;10.83;;;6.87;;
16512;SDS011;8369;48.030;11.598;2023-12-07T02:40:54;11.57;;;7.73;;
16512;SDS011;8369;48.030;11.598;2023-12-07T02:43:21;10.37;;;7.47;;
16512;SDS011;8369;48.030;11.598;2023-12-07T02:45:48;11.93;;;7.67;;
16512;SDS011;8369;48.030;11.598;2023-12-07T02:48:14;11.13;;;7.40;;
16512;SDS011;8369;48.030;11.598;2023-12-07T02:50:40;9.80;;;6.90;;
16512;SDS011;8369;48.030;11.598;2023-12-07T02:53:05;14.93;;;8.83;;
16512;SDS011;8369;48.030;11.598;2023-12-07T02:55:34;17.40;;;11.03;;
16512;SDS011;8369;48.030;11.598;2023-12-07T02:58:00;20.40;;;11.90;;
16512;SDS011;8369;48.030;11.598;2023-12-07T03:00:26;14.37;;;9.97;;
16512;SDS011;8369;48.030;11.598;2023-12-07T03:02:52;12.70;;;9.43;;
16512;SDS011;8369;48.030;11.598;2023-12-07T03:05:17;13.17;;;8.23;;
16512;SDS011;8369;48.030;11.598;2023-12-07T03:07:45;12.20;;;8.00;;
16512;SDS011;8369;48.030;11.598;2023-12-07T03:10:11;12.93;;;8.00;;
16512;SDS011;8369;48.030;11.598;2023-12-07T03:12:37;16.50;;;10.07;;
16512;SDS011;8369;48.030;11.598;2023-12-07T03:15:02;17.03;;;10.33;;
16512;SDS011;8369;48.030;11.598;2023-12-07T03:17:29;17.53;;;10.23;;
16512;SDS011;8369;48.030;11.598;2023-12-07T03:19:55;14.33;;;9.20;;
16512;SDS011;8369;48.030;11.598;2023-12-07T03:22:21;15.73;;;9.13;;
16512;SDS011;8369;48.030;11.598;2023-12-07T03:24:50;12.70;;;7.43;;
16512;SDS011;8369;48.030;11.598;2023-12-07T03:27:16;11.53;;;6.87;;
16512;SDS011;8369;48.030;11.598;2023-12-07T03:29:42;12.00;;;7.27;;
16512;SDS011;8369;48.030;11.598;2023-12-07T03:32:08;11.10;;;7.50;;
16512;SDS011;8369;48.030;11.598;2023-12-07T03:34:34;11.07;;;7.53;;
16512;SDS011;8369;48.030;11.598;2023-12-07T03:36:59;10.47;;;7.40;;
16512;SDS011;8369;48.030;11.598;2023-12-07T03:39:25;11.90;;;7.80;;
16512;SDS011;8369;48.030;11.598;2023-12-07T03:41:52;11.27;;;7.77;;
16512;SDS011;8369;48.030;11.598;2023-12-07T03:44:17;11.53;;;7.60;;
16512;SDS011;8369;48.030;11.598;2023-12-07T03:46:43;13.30;;;7.53;;
16512;SDS011;8369;48.030;11.598;2023-12-07T03:49:12;11.00;;;7.23;;
16512;SDS011;8369;48.030;11.598;2023-12-07T03:51:38;12.23;;;7.13;;
16512;SDS011;8369;48.030;11.598;2023-12-07T03:54:03;10.70;;;7.43;;
16512;SDS011;8369;48.030;11.598;2023-12-07T03:56:31;13.70;;;7.17;;
16512;SDS011;8369;48.030;11.598;2023-12-07T03:58:57;10.17;;;6.73;;
16512;SDS011;8369;48.030;11.598;2023-12-07T04:01:23;11.03;;;7.43;;
16512;SDS011;8369;48.030;11.598;2023-12-07T04:03:53;13.03;;;7.67;;
16512;SDS011;8369;48.030;11.598;2023-12-07T04:06:21;11.17;;;7.30;;
16512;SDS011;8369;48.030;11.598;2023-12-07T04:08:47;9.67;;;6.63;;
16512;SDS011;8369;48.030;11.598;2023-12-07T04:11:13;11.17;;;7.73;;
16512;SDS011;8369;48.030;11.598;2023-12-07T04:13:39;10.03;;;7.10;;
16512;SDS011;8369;48.030;11.598;2023-12-07T04:16:05;11.53;;;8.00;;
16512;SDS011;8369;48.030;11.598;2023-12-07T04:18:31;11.23;;;7.67;;
16512;SDS011;8369;48.030;11.598;2023-12-07T04:20:57;11.77;;;8.13;;
16512;SDS011;8369;48.030;11.598;2023-12-07T04:23:23;31.17;;;16.80;;
16512;SDS011;8369;48.030;11.598;2023-12-07T04:25:48;51.10;;;25.77;;
16512;SDS011;8369;48.030;11.598;2023-12-07T04:28:14;28.57;;;16.47;;
16512;SDS011;8369;48.030;11.598;2023-12-07T04:30:40;21.13;;;11.93;;
16512;SDS011;8369;48.030;11.598;2023-12-07T04:33:06;17.30;;;9.40;;
16512;SDS011;8369;48.030;11.598;2023-12-07T04:35:32;12.03;;;8.30;;
16512;SDS011;8369;48.030;11.598;2023-12-07T04:37:57;15.13;;;7.73;;
16512;SDS011;8369;48.030;11.598;2023-12-07T04:40:26;11.23;;;6.90;;
16512;SDS011;8369;48.030;11.598;2023-12-07T04:42:52;9.17;;;6.73;;
16512;SDS011;8369;48.030;11.598;2023-12-07T04:45:18;11.00;;;7.17;;
16512;SDS011;8369;48.030;11.598;2023-12-07T04:47:44;12.93;;;7.27;;
16512;SDS011;8369;48.030;11.598;2023-12-07T04:50:10;11.63;;;6.80;;
16512;SDS011;8369;48.030;11.598;2023-12-07T04:52:36;9.57;;;6.63;;
16512;SDS011;8369;48.030;11.598;2023-12-07T04:55:02;9.87;;;6.63;;
16512;SDS011;8369;48.030;11.598;2023-12-07T04:57:27;10.40;;;6.43;;
16512;SDS011;8369;48.030;11.598;2023-12-07T04:59:53;10.83;;;5.90;;
16512;SDS011;8369;48.030;11.598;2023-12-07T05:02:19;9.30;;;6.87;;
16512;SDS011;8369;48.030;11.598;2023-12-07T05:04:45;10.53;;;6.33;;
16512;SDS011;8369;48.030;11.598;2023-12-07T05:07:11;9.23;;;6.60;;
16512;SDS011;8369;48.030;11.598;2023-12-07T05:09:38;9.67;;;6.13;;
16512;SDS011;8369;48.030;11.598;2023-12-07T05:12:04;11.00;;;6.80;;
16512;SDS011;8369;48.030;11.598;2023-12-07T05:14:30;9.23;;;5.63;;
16512;SDS011;8369;48.030;11.598;2023-12-07T05:16:57;10.93;;;6.30;;
16512;SDS011;8369;48.030;11.598;2023-12-07T05:19:23;13.50;;;6.63;;
16512;SDS011;8369;48.030;11.598;2023-12-07T05:21:49;9.07;;;6.27;;
16512;SDS011;8369;48.030;11.598;2023-12-07T05:24:15;9.50;;;7.00;;
16512;SDS011;8369;48.030;11.598;2023-12-07T05:26:42;8.60;;;6.07;;
16512;SDS011;8369;48.030;11.598;2023-12-07T05:29:08;8.57;;;5.67;;
16512;SDS011;8369;48.030;11.598;2023-12-07T05:31:33;9.53;;;6.43;;
16512;SDS011;8369;48.030;11.598;2023-12-07T05:34:00;9.17;;;6.53;;
16512;SDS011;8369;48.030;11.598;2023-12-07T05:36:26;9.90;;;6.20;;
16512;SDS011;8369;48.030;11.598;2023-12-07T05:38:52;9.03;;;5.67;;
16512;SDS011;8369;48.030;11.598;2023-12-07T05:41:17;9.23;;;6.57;;
16512;SDS011;8369;48.030;11.598;2023-12-07T05:43:43;10.63;;;6.50;;
16512;SDS011;8369;48.030;11.598;2023-12-07T05:46:09;9.43;;;6.27;;
16512;SDS011;8369;48.030;11.598;2023-12-07T05:48:35;9.27;;;5.97;;
16512;SDS011;8369;48.030;11.598;2023-12-07T05:51:01;10.33;;;6.60;;
16512;SDS011;8369;48.030;11.598;2023-12-07T05:53:27;9.17;;;6.07;;
16512;SDS011;8369;48.030;11.598;2023-12-07T05:55:56;9.50;;;6.70;;
16512;SDS011;8369;48.030;11.598;2023-12-07T05:58:22;9.40;;;5.87;;
16512;SDS011;8369;48.030;11.598;2023-12-07T06:00:48;8.50;;;5.67;;
16512;SDS011;8369;48.030;11.598;2023-12-07T06:03:14;9.40;;;6.27;;
16512;SDS011;8369;48.030;11.598;2023-12-07T06:05:40;8.40;;;5.93;;
16512;SDS011;8369;48.030;11.598;2023-12-07T06:08:07;9.53;;;5.97;;
16512;SDS011;8369;48.030;11.598;2023-12-07T06:10:32;9.23;;;5.63;;
16512;SDS011;8369;48.030;11.598;2023-12-07T06:12:58;13.10;;;7.00;;
16512;SDS011;8369;48.030;11.598;2023-12-07T06:15:26;9.50;;;6.37;;
16512;SDS011;8369;48.030;11.598;2023-12-07T06:17:52;8.40;;;6.13;;
16512;SDS011;8369;48.030;11.598;2023-12-07T06:20:19;8.33;;;6.10;;
16512;SDS011;8369;48.030;11.598;2023-12-07T06:22:45;10.20;;;6.50;;
16512;SDS011;8369;48.030;11.598;2023-12-07T06:25:11;10.23;;;6.53;;
16512;SDS011;8369;48.030;11.598;2023-12-07T06:27:37;10.30;;;6.80;;
16512;SDS011;8369;48.030;11.598;2023-12-07T06:30:04;12.23;;;7.07;;
16512;SDS011;8369;48.030;11.598;2023-12-07T06:32:33;10.63;;;7.23;;
16512;SDS011;8369;48.030;11.598;2023-12-07T06:34:59;13.07;;;6.77;;
16512;SDS011;8369;48.030;11.598;2023-12-07T06:37:26;10.00;;;6.53;;
16512;SDS011;8369;48.030;11.598;2023-12-07T06:39:52;10.60;;;7.03;;
16512;SDS011;8369;48.030;11.598;2023-12-07T06:42:17;11.40;;;7.27;;
16512;SDS011;8369;48.030;11.598;2023-12-07T06:44:47;11.03;;;6.50;;
16512;SDS011;8369;48.030;11.598;2023-12-07T06:47:16;9.97;;;6.93;;
16512;SDS011;8369;48.030;11.598;2023-12-07T06:49:42;11.50;;;7.07;;
16512;SDS011;8369;48.030;11.598;2023-12-07T06:52:08;10.30;;;6.50;;
16512;SDS011;8369;48.030;11.598;2023-12-07T06:54:34;9.93;;;6.90;;
16512;SDS011;8369;48.030;11.598;2023-12-07T06:56:59;10.97;;;6.53;;
16512;SDS011;8369;48.030;11.598;2023-12-07T06:59:25;12.10;;;6.87;;
16512;SDS011;8369;48.030;11.598;2023-12-07T07:01:51;10.83;;;6.40;;
16512;SDS011;8369;48.030;11.598;2023-12-07T07:04:17;11.67;;;6.83;;
16512;SDS011;8369;48.030;11.598;2023-12-07T07:06:43;12.37;;;7.80;;
16512;SDS011;8369;48.030;11.598;2023-12-07T07:09:09;10.27;;;6.80;;
16512;SDS011;8369;48.030;11.598;2023-12-07T07:11:35;10.60;;;7.37;;
16512;SDS011;8369;48.030;11.598;2023-12-07T07:14:02;12.07;;;7.23;;
16512;SDS011;8369;48.030;11.598;2023-12-07T07:16:28;12.17;;;7.77;;
16512;SDS011;8369;48.030;11.598;2023-12-07T07:18:53;11.17;;;7.07;;
16512;SDS011;8369;48.030;11.598;2023-12-07T07:21:19;10.07;;;6.97;;
16512;SDS011;8369;48.030;11.598;2023-12-07T07:23:45;11.80;;;7.60;;
16512;SDS011;8369;48.030;11.598;2023-12-07T07:26:11;10.27;;;6.73;;
16512;SDS011;8369;48.030;11.598;2023-12-07T07:28:42;9.20;;;6.67;;
16512;SDS011;8369;48.030;11.598;2023-12-07T07:31:08;11.30;;;7.37;;
16512;SDS011;8369;48.030;11.598;2023-12-07T07:33:34;14.93;;;6.90;;
16512;SDS011;8369;48.030;11.598;2023-12-07T07:35:59;12.17;;;6.90;;
16512;SDS011;8369;48.030;11.598;2023-12-07T07:38:25;13.90;;;7.47;;
16512;SDS011;8369;48.030;11.598;2023-12-07T07:40:51;14.37;;;8.13;;
16512;SDS011;8369;48.030;11.598;2023-12-07T07:43:17;11.87;;;7.73;;
16512;SDS011;8369;48.030;11.598;2023-12-07T07:45:43;11.40;;;7.70;;
16512;SDS011;8369;48.030;11.598;2023-12-07T07:48:09;15.03;;;8.23;;
16512;SDS011;8369;48.030;11.598;2023-12-07T07:50:34;13.57;;;7.13;;
16512;SDS011;8369;48.030;11.598;2023-12-07T07:53:02;13.30;;;8.03;;
16512;SDS011;8369;48.030;11.598;2023-12-07T07:55:28;13.07;;;8.43;;
16512;SDS011;8369;48.030;11.598;2023-12-07T07:57:54;12.80;;;8.30;;
16512;SDS011;8369;48.030;11.598;2023-12-07T08:00:20;12.80;;;7.60;;
16512;SDS011;8369;48.030;11.598;2023-12-07T08:02:46;12.47;;;7.80;;
16512;SDS011;8369;48.030;11.598;2023-12-07T08:05:12;12.03;;;7.33;;
16512;SDS011;8369;48.030;11.598;2023-12-07T08:07:43;10.67;;;7.60;;
16512;SDS011;8369;48.030;11.598;2023-12-07T08:10:09;12.10;;;8.13;;
16512;SDS011;8369;48.030;11.598;2023-12-07T08:16:35;12.50;;;7.90;;
16512;SDS011;8369;48.030;11.598;2023-12-07T08:19:01;14.13;;;7.57;;
16512;SDS011;8369;48.030;11.598;2023-12-07T08:21:28;11.63;;;8.10;;
16512;SDS011;8369;48.030;11.598;2023-12-07T08:23:54;14.77;;;8.00;;
16512;SDS011;8369;48.030;11.598;2023-12-07T08:26:20;11.17;;;7.43;;
16512;SDS011;8369;48.030;11.598;2023-12-07T08:28:46;13.30;;;7.80;;
16512;SDS011;8369;48.030;11.598;2023-12-07T08:31:12;13.53;;;8.00;;
16512;SDS011;8369;48.030;11.598;2023-12-07T08:33:38;12.10;;;7.90;;
16512;SDS011;8369;48.030;11.598;2023-12-07T08:36:06;12.57;;;8.33;;
16512;SDS011;8369;48.030;11.598;2023-12-07T08:38:33;13.83;;;8.90;;
16512;SDS011;8369;48.030;11.598;2023-12-07T08:44:39;13.60;;;8.33;;
16512;SDS011;8369;48.030;11.598;2023-12-07T08:47:06;12.93;;;8.10;;
16512;SDS011;8369;48.030;11.598;2023-12-07T08:53:12;12.30;;;7.83;;
16512;SDS011;8369;48.030;11.598;2023-12-07T08:55:38;12.10;;;7.40;;
16512;SDS011;8369;48.030;11.598;2023-12-07T08:58:05;12.40;;;7.77;;
16512;SDS011;8369;48.030;11.598;2023-12-07T09:00:31;10.87;;;7.03;;
16512;SDS011;8369;48.030;11.598;2023-12-07T09:02:57;9.90;;;6.90;;
16512;SDS011;8369;48.030;11.598;2023-12-07T09:05:23;14.90;;;8.00;;
16512;SDS011;8369;48.030;11.598;2023-12-07T09:07:48;14.73;;;7.80;;
16512;SDS011;8369;48.030;11.598;2023-12-07T09:10:14;12.37;;;7.43;;
16512;SDS011;8369;48.030;11.598;2023-12-07T09:12:40;9.60;;;6.50;;
16512;SDS011;8369;48.030;11.598;2023-12-07T09:18:47;9.43;;;6.03;;
16512;SDS011;8369;48.030;11.598;2023-12-07T09:21:12;9.73;;;5.83;;
16512;SDS011;8369;48.030;11.598;2023-12-07T09:23:38;9.40;;;6.03;;
16512;SDS011;8369;48.030;11.598;2023-12-07T09:26:04;7.00;;;4.70;;
16512;SDS011;8369;48.030;11.598;2023-12-07T09:28:30;7.40;;;4.83;;
16512;SDS011;8369;48.030;11.598;2023-12-07T09:30:58;10.87;;;5.80;;
16512;SDS011;8369;48.030;11.598;2023-12-07T09:33:24;8.27;;;5.37;;
16512;SDS011;8369;48.030;11.598;2023-12-07T09:35:55;7.57;;;5.30;;
16512;SDS011;8369;48.030;11.598;2023-12-07T09:38:27;8.37;;;5.47;;
16512;SDS011;8369;48.030;11.598;2023-12-07T09:40:53;8.50;;;5.50;;
16512;SDS011;8369;48.030;11.598;2023-12-07T09:43:22;8.80;;;5.50;;
16512;SDS011;8369;48.030;11.598;2023-12-07T09:45:50;8.27;;;4.40;;
16512;SDS011;8369;48.030;11.598;2023-12-07T09:48:21;5.53;;;4.03;;
16512;SDS011;8369;48.030;11.598;2023-12-07T09:50:55;6.20;;;4.33;;
16512;SDS011;8369;48.030;11.598;2023-12-07T09:53:28;5.80;;;3.97;;
16512;SDS011;8369;48.030;11.598;2023-12-07T09:55:55;4.47;;;3.40;;
16512;SDS011;8369;48.030;11.598;2023-12-07T09:58:24;4.77;;;3.47;;
16512;SDS011;8369;48.030;11.598;2023-12-07T10:00:58;4.80;;;2.93;;
16512;SDS011;8369;48.030;11.598;2023-12-07T10:03:23;4.27;;;3.07;;
16512;SDS011;8369;48.030;11.598;2023-12-07T10:05:53;4.67;;;2.90;;
16512;SDS011;8369;48.030;11.598;2023-12-07T10:08:26;4.40;;;3.23;;
16512;SDS011;8369;48.030;11.598;2023-12-07T10:13:35;6.07;;;3.60;;
16512;SDS011;8369;48.030;11.598;2023-12-07T10:16:08;6.40;;;3.27;;
16512;SDS011;8369;48.030;11.598;2023-12-07T10:18:40;5.30;;;2.70;;
16512;SDS011;8369;48.030;11.598;2023-12-07T10:21:06;2.63;;;2.23;;
16512;SDS011;8369;48.030;11.598;2023-12-07T10:23:36;2.50;;;2.10;;
16512;SDS011;8369;48.030;11.598;2023-12-07T10:26:02;2.40;;;2.00;;
16512;SDS011;8369;48.030;11.598;2023-12-07T10:28:31;2.87;;;1.90;;
16512;SDS011;8369;48.030;11.598;2023-12-07T10:30:58;3.43;;;2.40;;
16512;SDS011;8369;48.030;11.598;2023-12-07T10:33:25;7.00;;;2.83;;
16512;SDS011;8369;48.030;11.598;2023-12-07T10:35:51;2.97;;;2.53;;
16512;SDS011;8369;48.030;11.598;2023-12-07T10:41:39;3.30;;;2.67;;
16512;SDS011;8369;48.030;11.598;2023-12-07T10:44:10;3.03;;;2.43;;
16512;SDS011;8369;48.030;11.598;2023-12-07T10:46:38;3.13;;;2.43;;
16512;SDS011;8369;48.030;11.598;2023-12-07T10:49:07;4.23;;;2.83;;
16512;SDS011;8369;48.030;11.598;2023-12-07T10:51:45;3.80;;;2.40;;
16512;SDS011;8369;48.030;11.598;2023-12-07T10:54:23;6.50;;;2.70;;
16512;SDS011;8369;48.030;11.598;2023-12-07T10:56:57;12.03;;;2.90;;
16512;SDS011;8369;48.030;11.598;2023-12-07T10:59:27;3.20;;;2.63;;
16512;SDS011;8369;48.030;11.598;2023-12-07T11:01:55;5.97;;;3.07;;
16512;SDS011;8369;48.030;11.598;2023-12-07T11:04:22;4.17;;;2.60;;
16512;SDS011;8369;48.030;11.598;2023-12-07T11:06:50;3.60;;;2.60;;
16512;SDS011;8369;48.030;11.598;2023-12-07T11:09:23;4.20;;;2.97;;
16512;SDS011;8369;48.030;11.598;2023-12-07T11:12:07;5.63;;;2.63;;
16512;SDS011;8369;48.030;11.598;2023-12-07T11:14:38;3.17;;;2.50;;
16512;SDS011;8369;48.030;11.598;2023-12-07T11:17:04;2.97;;;2.40;;
16512;SDS011;8369;48.030;11.598;2023-12-07T11:22:05;3.33;;;2.60;;
16512;SDS011;8369;48.030;11.598;2023-12-07T11:24:32;3.23;;;2.90;;
16512;SDS011;8369;48.030;11.598;2023-12-07T11:26:58;6.07;;;2.67;;
16512;SDS011;8369;48.030;11.598;2023-12-07T11:29:24;3.73;;;2.73;;
16512;SDS011;8369;48.030;11.598;2023-12-07T11:31:51;4.13;;;2.80;;
16512;SDS011;8369;48.030;11.598;2023-12-07T11:37:06;4.20;;;3.30;;
16512;SDS011;8369;48.030;11.598;2023-12-07T11:39:36;3.37;;;2.43;;
16512;SDS011;8369;48.030;11.598;2023-12-07T11:42:10;3.00;;;2.50;;
16512;SDS011;8369;48.030;11.598;2023-12-07T11:44:43;3.20;;;2.40;;
16512;SDS011;8369;48.030;11.598;2023-12-07T11:47:15;4.20;;;2.70;;
16512;SDS011;8369;48.030;11.598;2023-12-07T11:49:42;4.67;;;3.53;;
16512;SDS011;8369;48.030;11.598;2023-12-07T11:52:12;3.60;;;3.10;;
16512;SDS011;8369;48.030;11.598;2023-12-07T11:54:43;4.37;;;2.63;;
16512;SDS011;8369;48.030;11.598;2023-12-07T11:57:16;3.47;;;2.40;;
16512;SDS011;8369;48.030;11.598;2023-12-07T11:59:46;4.63;;;2.53;;
16512;SDS011;8369;48.030;11.598;2023-12-07T12:02:14;2.90;;;2.13;;
16512;SDS011;8369;48.030;11.598;2023-12-07T12:04:40;5.43;;;2.67;;
16512;SDS011;8369;48.030;11.598;2023-12-07T12:07:06;5.10;;;2.90;;
16512;SDS011;8369;48.030;11.598;2023-12-07T12:09:32;2.30;;;2.10;;
16512;SDS011;8369;48.030;11.598;2023-12-07T12:11:59;3.03;;;2.07;;
16512;SDS011;8369;48.030;11.598;2023-12-07T12:14:25;2.77;;;2.30;;
16512;SDS011;8369;48.030;11.598;2023-12-07T12:16:52;2.20;;;1.83;;
16512;SDS011;8369;48.030;11.598;2023-12-07T12:19:19;2.07;;;1.77;;
16512;SDS011;8369;48.030;11.598;2023-12-07T12:21:45;3.10;;;2.30;;
16512;SDS011;8369;48.030;11.598;2023-12-07T12:24:11;3.20;;;2.27;;
16512;SDS011;8369;48.030;11.598;2023-12-07T12:26:39;2.57;;;2.10;;
16512;SDS011;8369;48.030;11.598;2023-12-07T12:29:06;2.37;;;2.00;;
16512;SDS011;8369;48.030;11.598;2023-12-07T12:31:34;2.57;;;2.20;;
16512;SDS011;8369;48.030;11.598;2023-12-07T12:34:05;3.00;;;2.20;;
16512;SDS011;8369;48.030;11.598;2023-12-07T12:36:33;3.13;;;2.20;;
16512;SDS011;8369;48.030;11.598;2023-12-07T12:38:59;2.40;;;2.07;;
16512;SDS011;8369;48.030;11.598;2023-12-07T12:41:27;3.03;;;2.50;;
16512;SDS011;8369;48.030;11.598;2023-12-07T12:43:56;3.13;;;2.13;;
16512;SDS011;8369;48.030;11.598;2023-12-07T12:46:22;4.47;;;2.47;;
16512;SDS011;8369;48.030;11.598;2023-12-07T12:48:54;4.77;;;2.67;;
16512;SDS011;8369;48.030;11.598;2023-12-07T12:51:25;3.87;;;2.60;;
16512;SDS011;8369;48.030;11.598;2023-12-07T12:53:53;3.73;;;2.57;;
16512;SDS011;8369;48.030;11.598;2023-12-07T12:56:21;3.73;;;2.40;;
16512;SDS011;8369;48.030;11.598;2023-12-07T12:58:51;2.47;;;2.03;;
16512;SDS011;8369;48.030;11.598;2023-12-07T13:01:17;2.47;;;2.20;;
16512;SDS011;8369;48.030;11.598;2023-12-07T13:03:45;2.97;;;2.17;;
16512;SDS011;8369;48.030;11.598;2023-12-07T13:06:12;2.33;;;2.10;;
16512;SDS011;8369;48.030;11.598;2023-12-07T13:08:45;2.20;;;2.00;;
16512;SDS011;8369;48.030;11.598;2023-12-07T13:11:18;2.83;;;2.40;;
16512;SDS011;8369;48.030;11.598;2023-12-07T13:13:45;3.53;;;2.40;;
16512;SDS011;8369;48.030;11.598;2023-12-07T13:16:17;5.07;;;2.50;;
16512;SDS011;8369;48.030;11.598;2023-12-07T13:18:43;4.90;;;3.27;;
16512;SDS011;8369;48.030;11.598;2023-12-07T13:21:09;4.77;;;3.33;;
16512;SDS011;8369;48.030;11.598;2023-12-07T13:23:35;3.13;;;2.40;;
16512;SDS011;8369;48.030;11.598;2023-12-07T13:26:02;3.73;;;2.47;;
16512;SDS011;8369;48.030;11.598;2023-12-07T13:28:27;4.03;;;2.97;;
16512;SDS011;8369;48.030;11.598;2023-12-07T13:30:53;3.30;;;2.73;;
16512;SDS011;8369;48.030;11.598;2023-12-07T13:33:19;3.87;;;2.40;;
16512;SDS011;8369;48.030;11.598;2023-12-07T13:35:45;3.07;;;2.40;;
16512;SDS011;8369;48.030;11.598;2023-12-07T13:38:10;4.33;;;2.23;;
16512;SDS011;8369;48.030;11.598;2023-12-07T13:40:36;2.57;;;2.37;;
16512;SDS011;8369;48.030;11.598;2023-12-07T13:43:02;3.00;;;2.30;;
16512;SDS011;8369;48.030;11.598;2023-12-07T13:45:28;2.43;;;1.90;;
16512;SDS011;8369;48.030;11.598;2023-12-07T13:47:54;3.90;;;2.20;;
16512;SDS011;8369;48.030;11.598;2023-12-07T13:50:20;2.67;;;2.10;;
16512;SDS011;8369;48.030;11.598;2023-12-07T13:52:46;2.60;;;2.20;;
16512;SDS011;8369;48.030;11.598;2023-12-07T13:55:11;3.37;;;2.40;;
16512;SDS011;8369;48.030;11.598;2023-12-07T13:57:37;2.87;;;2.37;;
16512;SDS011;8369;48.030;11.598;2023-12-07T14:00:04;4.43;;;2.03;;
16512;SDS011;8369;48.030;11.598;2023-12-07T14:02:30;5.73;;;2.80;;
16512;SDS011;8369;48.030;11.598;2023-12-07T14:04:56;3.20;;;2.50;;
16512;SDS011;8369;48.030;11.598;2023-12-07T14:07:22;3.47;;;2.80;;
16512;SDS011;8369;48.030;11.598;2023-12-07T14:09:49;4.23;;;2.87;;
16512;SDS011;8369;48.030;11.598;2023-12-07T14:12:16;4.30;;;3.23;;
16512;SDS011;8369;48.030;11.598;2023-12-07T14:14:43;6.97;;;3.33;;
16512;SDS011;8369;48.030;11.598;2023-12-07T14:17:10;4.70;;;3.23;;
16512;SDS011;8369;48.030;11.598;2023-12-07T14:19:41;5.47;;;3.60;;
16512;SDS011;8369;48.030;11.598;2023-12-07T14:22:07;6.23;;;4.07;;
16512;SDS011;8369;48.030;11.598;2023-12-07T14:24:36;5.83;;;3.87;;
16512;SDS011;8369;48.030;11.598;2023-12-07T14:27:02;5.57;;;3.70;;
16512;SDS011;8369;48.030;11.598;2023-12-07T14:29:29;5.00;;;3.50;;
16512;SDS011;8369;48.030;11.598;2023-12-07T14:31:57;6.97;;;4.50;;
16512;SDS011;8369;48.030;11.598;2023-12-07T14:34:23;6.43;;;4.20;;
16512;SDS011;8369;48.030;11.598;2023-12-07T14:36:51;7.43;;;4.33;;
16512;SDS011;8369;48.030;11.598;2023-12-07T14:39:18;6.77;;;4.30;;
16512;SDS011;8369;48.030;11.598;2023-12-07T14:41:45;8.37;;;4.40;;
16512;SDS011;8369;48.030;11.598;2023-12-07T14:44:14;7.77;;;4.37;;
16512;SDS011;8369;48.030;11.598;2023-12-07T14:46:46;6.73;;;4.33;;
16512;SDS011;8369;48.030;11.598;2023-12-07T14:49:13;8.73;;;4.80;;
16512;SDS011;8369;48.030;11.598;2023-12-07T14:51:41;6.37;;;4.17;;
16512;SDS011;8369;48.030;11.598;2023-12-07T14:54:07;5.03;;;4.30;;
16512;SDS011;8369;48.030;11.598;2023-12-07T14:56:35;7.57;;;4.20;;
16512;SDS011;8369;48.030;11.598;2023-12-07T14:59:01;7.17;;;4.50;;
16512;SDS011;8369;48.030;11.598;2023-12-07T15:01:27;6.50;;;4.90;;
16512;SDS011;8369;48.030;11.598;2023-12-07T15:03:53;7.87;;;5.60;;
16512;SDS011;8369;48.030;11.598;2023-12-07T15:06:19;8.53;;;5.80;;